createdAt,value
2022-09-28T00:01:16.207Z,1.20
2022-09-28T00:03:44.346Z,1.30
2022-09-28T00:06:13.890Z,1.50
2022-09-28T00:08:40.256Z,1.30
2022-09-28T00:11:12.182Z,1.60
2022-09-28T00:13:39.985Z,1.50
2022-09-28T00:16:11.329Z,1.20
2022-09-28T00:18:37.894Z,1.30
2022-09-28T00:21:12.362Z,1.40
2022-09-28T00:24:00.366Z,1.40
2022-09-28T00:26:29.052Z,1.60
2022-09-28T00:28:59.673Z,1.40
2022-09-28T00:31:33.222Z,1.30
2022-09-28T00:34:01.391Z,1.50
2022-09-28T00:36:31.525Z,1.50
2022-09-28T00:39:02.369Z,1.60
2022-09-28T00:41:29.201Z,1.40
2022-09-28T00:44:41.404Z,1.20
2022-09-28T00:47:25.699Z,1.60
2022-09-28T00:50:00.804Z,1.50
2022-09-28T00:52:38.041Z,1.60
2022-09-28T00:55:11.721Z,1.60
2022-09-28T00:57:43.850Z,1.70
2022-09-28T01:00:11.520Z,1.90
2022-09-28T01:02:37.923Z,2.10
2022-09-28T01:05:09.591Z,1.70
2022-09-28T01:07:37.883Z,1.40
2022-09-28T01:10:05.411Z,1.30
2022-09-28T01:12:31.813Z,1.80
2022-09-28T01:15:00.033Z,1.90
2022-09-28T01:17:52.908Z,1.80
2022-09-28T01:21:00.898Z,1.60
2022-09-28T01:24:09.836Z,1.70
2022-09-28T01:26:59.115Z,1.90
2022-09-28T01:29:57.468Z,1.70
2022-09-28T01:32:46.911Z,1.60
2022-09-28T01:35:29.489Z,1.20
2022-09-28T01:38:09.067Z,1.20
2022-09-28T01:40:37.018Z,1.50
2022-09-28T01:43:14.478Z,1.30
2022-09-28T01:45:49.257Z,1.20
2022-09-28T01:48:31.807Z,1.00
2022-09-28T01:51:04.194Z,0.90
2022-09-28T01:53:52.894Z,0.90
2022-09-28T01:56:29.281Z,1.10
2022-09-28T01:59:05.533Z,1.10
2022-09-28T02:02:03.369Z,1.00
2022-09-28T02:04:39.152Z,1.20
2022-09-28T02:07:51.208Z,1.10
2022-09-28T02:10:28.798Z,1.10
2022-09-28T02:13:08.085Z,1.20
2022-09-28T02:16:14.688Z,1.40
2022-09-28T02:18:42.186Z,1.40
2022-09-28T02:21:22.609Z,1.30
2022-09-28T02:23:57.663Z,1.40
2022-09-28T02:26:32.854Z,1.20
2022-09-28T02:28:59.341Z,1.30
2022-09-28T02:31:27.613Z,1.40
2022-09-28T02:33:57.206Z,1.30
2022-09-28T02:36:26.843Z,1.70
2022-09-28T02:38:56.689Z,1.50
2022-09-28T02:41:41.992Z,1.60
2022-09-28T02:44:33.311Z,2.30
2022-09-28T02:47:55.859Z,2.20
2022-09-28T02:51:10.724Z,2.20
2022-09-28T02:54:18.941Z,2.10
2022-09-28T02:57:16.633Z,2.00
2022-09-28T03:00:13.653Z,2.20
2022-09-28T03:03:26.210Z,1.90
2022-09-28T03:06:26.178Z,2.10
2022-09-28T03:09:05.830Z,2.00
2022-09-28T03:11:50.544Z,2.10
2022-09-28T03:14:18.393Z,1.90
2022-09-28T03:16:45.864Z,2.20
2022-09-28T03:19:15.624Z,2.30
2022-09-28T03:21:41.956Z,2.30
2022-09-28T03:24:10.609Z,2.30
2022-09-28T03:26:38.748Z,2.20
2022-09-28T03:29:06.295Z,4.60
2022-09-28T03:31:32.837Z,5.10
2022-09-28T03:33:59.338Z,2.70
2022-09-28T03:36:26.028Z,2.90
2022-09-28T03:38:57.790Z,2.50
2022-09-28T03:41:24.646Z,2.40
2022-09-28T03:43:51.178Z,2.50
2022-09-28T03:46:17.652Z,2.70
2022-09-28T03:48:44.069Z,3.10
2022-09-28T03:51:12.556Z,3.30
2022-09-28T03:53:40.060Z,3.20
2022-09-28T03:56:15.515Z,3.10
2022-09-28T03:58:42.371Z,3.10
2022-09-28T04:01:16.807Z,3.00
2022-09-28T04:03:45.660Z,3.40
2022-09-28T04:06:12.729Z,3.40
2022-09-28T04:08:39.629Z,3.20
2022-09-28T04:11:06.198Z,3.20
2022-09-28T04:13:32.575Z,3.30
2022-09-28T04:16:00.924Z,3.40
2022-09-28T04:18:28.323Z,3.20
2022-09-28T04:21:20.967Z,3.10
2022-09-28T04:23:48.426Z,3.50
2022-09-28T04:26:25.149Z,3.60
2022-09-28T04:29:10.283Z,4.00
2022-09-28T04:31:41.075Z,3.30
2022-09-28T04:34:08.503Z,3.60
2022-09-28T04:36:35.004Z,3.90
2022-09-28T04:39:01.377Z,3.40
2022-09-28T04:41:27.913Z,3.80
2022-09-28T04:43:54.285Z,3.90
2022-09-28T04:46:20.760Z,3.90
2022-09-28T04:48:47.253Z,4.10
2022-09-28T04:51:13.912Z,4.50
2022-09-28T04:53:40.251Z,4.50
2022-09-28T04:56:11.541Z,4.10
2022-09-28T04:58:39.099Z,4.40
2022-09-28T05:01:10.835Z,4.30
2022-09-28T05:03:37.385Z,4.40
2022-09-28T05:06:06.314Z,4.30
2022-09-28T05:08:34.704Z,4.40
2022-09-28T05:11:05.714Z,4.70
2022-09-28T05:13:41.155Z,4.40
2022-09-28T05:16:09.459Z,3.50
2022-09-28T05:18:35.877Z,3.60
2022-09-28T05:21:03.223Z,3.50
2022-09-28T05:23:29.663Z,3.80
2022-09-28T05:25:56.019Z,3.90
2022-09-28T05:28:28.413Z,4.00
2022-09-28T05:31:00.153Z,4.00
2022-09-28T05:33:28.108Z,3.70
2022-09-28T05:35:59.040Z,3.20
2022-09-28T05:38:27.847Z,3.60
2022-09-28T05:40:54.302Z,3.40
2022-09-28T05:43:21.136Z,3.10
2022-09-28T05:45:51.534Z,3.30
2022-09-28T05:48:20.878Z,3.00
2022-09-28T05:50:51.969Z,3.10
2022-09-28T05:53:18.942Z,2.90
2022-09-28T05:55:45.376Z,2.60
2022-09-28T05:58:11.753Z,2.20
2022-09-28T06:00:38.187Z,3.00
2022-09-28T06:03:12.422Z,3.20
2022-09-28T06:05:39.543Z,2.70
2022-09-28T06:08:09.783Z,2.00
2022-09-28T06:10:36.202Z,2.30
2022-09-28T06:13:02.579Z,2.10
2022-09-28T06:15:31.742Z,2.00
2022-09-28T06:18:07.319Z,2.10
2022-09-28T06:20:37.513Z,2.10
2022-09-28T06:23:04.284Z,2.40
2022-09-28T06:25:31.479Z,2.20
2022-09-28T06:28:02.354Z,2.50
2022-09-28T06:30:31.987Z,2.40
2022-09-28T06:33:01.089Z,2.40
2022-09-28T06:35:30.651Z,2.40
2022-09-28T06:38:00.700Z,2.10
2022-09-28T06:40:28.298Z,2.00
2022-09-28T06:43:06.455Z,2.30
2022-09-28T06:45:32.790Z,2.50
2022-09-28T06:48:01.550Z,2.40
2022-09-28T06:50:37.910Z,2.80
2022-09-28T06:53:06.292Z,2.60
2022-09-28T06:55:32.972Z,2.50
2022-09-28T06:58:05.441Z,2.30
2022-09-28T07:00:36.011Z,2.40
2022-09-28T07:03:15.478Z,2.90
2022-09-28T07:05:49.186Z,2.50
2022-09-28T07:08:19.118Z,1.90
2022-09-28T07:10:48.855Z,2.90
2022-09-28T07:13:40.873Z,2.50
2022-09-28T07:16:03.152Z,3.00
2022-09-28T07:18:29.954Z,3.40
2022-09-28T07:20:57.011Z,2.70
2022-09-28T07:23:27.008Z,3.10
2022-09-28T07:25:53.650Z,3.30
2022-09-28T07:28:21.231Z,3.20
2022-09-28T07:30:47.782Z,3.30
2022-09-28T07:33:16.643Z,2.70
2022-09-28T07:35:57.601Z,2.90
2022-09-28T07:38:25.482Z,3.20
2022-09-28T07:41:10.500Z,2.70
2022-09-28T07:43:43.411Z,2.80
2022-09-28T07:46:25.379Z,3.10
2022-09-28T07:48:58.105Z,3.00
2022-09-28T07:51:24.932Z,3.00
2022-09-28T07:53:53.655Z,3.30
2022-09-28T07:56:20.504Z,2.90
2022-09-28T07:58:48.593Z,2.90
2022-09-28T08:01:16.464Z,3.30
2022-09-28T08:03:44.796Z,3.10
2022-09-28T08:06:14.945Z,3.90
2022-09-28T08:08:45.655Z,3.30
2022-09-28T08:11:16.324Z,3.20
2022-09-28T08:13:44.984Z,3.40
2022-09-28T08:16:12.012Z,3.40
2022-09-28T08:18:38.625Z,3.60
2022-09-28T08:21:24.741Z,3.30
2022-09-28T08:23:52.343Z,3.50
2022-09-28T08:26:18.963Z,3.40
2022-09-28T08:28:47.110Z,3.40
2022-09-28T08:31:13.717Z,4.00
2022-09-28T08:33:41.514Z,3.20
2022-09-28T08:36:09.790Z,3.50
2022-09-28T08:38:36.215Z,3.10
2022-09-28T08:41:36.401Z,3.30
2022-09-28T08:44:23.386Z,3.20
2022-09-28T08:46:58.101Z,3.30
2022-09-28T08:49:41.385Z,3.10
2022-09-28T08:52:25.462Z,3.30
2022-09-28T08:55:11.251Z,3.00
2022-09-28T08:57:47.735Z,3.10
2022-09-28T09:00:20.804Z,3.30
2022-09-28T09:02:48.426Z,3.60
2022-09-28T09:05:19.792Z,3.70
2022-09-28T09:08:18.001Z,4.00
2022-09-28T09:10:56.438Z,3.60
2022-09-28T09:14:13.586Z,3.60
2022-09-28T09:17:13.685Z,3.50
2022-09-28T09:19:54.043Z,3.80
2022-09-28T09:22:41.023Z,3.60
2022-09-28T09:25:24.869Z,2.20
2022-09-28T09:28:04.040Z,2.50
2022-09-28T09:31:06.168Z,2.90
2022-09-28T09:33:55.957Z,3.20
2022-09-28T09:37:01.320Z,3.20
2022-09-28T09:39:30.545Z,2.80
2022-09-28T09:42:12.861Z,3.10
2022-09-28T09:44:50.492Z,2.30
2022-09-28T09:47:29.353Z,3.20
2022-09-28T09:50:24.677Z,2.80
2022-09-28T09:53:04.359Z,2.50
2022-09-28T09:55:41.437Z,2.80
2022-09-28T09:58:15.797Z,3.20
2022-09-28T10:00:47.470Z,3.60
2022-09-28T10:03:29.639Z,3.40
2022-09-28T10:06:04.170Z,3.20
2022-09-28T10:08:40.294Z,3.50
2022-09-28T10:11:22.129Z,2.80
2022-09-28T10:13:48.713Z,3.20
2022-09-28T10:16:19.179Z,3.50
2022-09-28T10:18:46.837Z,3.90
2022-09-28T10:21:22.596Z,4.20
2022-09-28T10:23:57.405Z,3.60
2022-09-28T10:26:38.546Z,3.10
2022-09-28T10:29:16.525Z,3.20
2022-09-28T10:31:54.030Z,2.90
2022-09-28T10:34:35.666Z,2.80
2022-09-28T10:37:12.989Z,1.70
2022-09-28T10:39:54.766Z,2.20
2022-09-28T10:42:27.801Z,1.70
2022-09-28T10:45:04.243Z,2.10
2022-09-28T10:47:32.284Z,2.00
2022-09-28T10:49:59.863Z,2.80
2022-09-28T10:52:42.027Z,2.20
2022-09-28T10:55:20.768Z,2.30
2022-09-28T10:57:48.012Z,2.20
2022-09-28T11:00:39.984Z,1.70
2022-09-28T11:03:24.384Z,2.40
2022-09-28T11:06:09.241Z,2.00
2022-09-28T11:08:44.334Z,2.50
2022-09-28T11:11:15.307Z,1.90
2022-09-28T11:13:53.010Z,1.80
2022-09-28T11:16:33.162Z,2.20
2022-09-28T11:19:21.874Z,1.80
2022-09-28T11:21:48.299Z,1.90
2022-09-28T11:24:18.935Z,2.20
2022-09-28T11:26:50.144Z,1.50
2022-09-28T11:29:26.525Z,2.20
2022-09-28T11:31:58.515Z,2.20
2022-09-28T11:34:57.400Z,2.40
2022-09-28T11:38:08.038Z,1.70
2022-09-28T11:41:10.030Z,1.00
2022-09-28T11:44:02.697Z,2.50
2022-09-28T11:46:47.628Z,1.10
2022-09-28T11:49:37.623Z,1.70
2022-09-28T11:52:39.161Z,1.80
2022-09-28T11:55:25.703Z,1.10
2022-09-28T11:58:04.914Z,1.20
2022-09-28T12:00:40.656Z,1.40
2022-09-28T12:03:37.057Z,1.40
2022-09-28T12:06:09.608Z,1.70
2022-09-28T12:09:02.757Z,1.10
2022-09-28T12:11:43.667Z,0.60
2022-09-28T12:14:25.910Z,0.90
2022-09-28T12:17:19.257Z,0.90
2022-09-28T12:20:03.801Z,0.70
2022-09-28T12:22:45.276Z,0.60
2022-09-28T12:25:20.625Z,0.70
2022-09-28T12:28:07.144Z,0.80
2022-09-28T12:30:39.955Z,0.60
2022-09-28T12:33:17.126Z,0.80
2022-09-28T12:36:07.947Z,0.50
2022-09-28T12:39:35.740Z,0.70
2022-09-28T12:42:31.829Z,0.60
2022-09-28T12:45:32.855Z,0.50
2022-09-28T12:48:35.783Z,0.40
2022-09-28T12:51:28.107Z,0.60
2022-09-28T12:54:18.748Z,0.60
2022-09-28T12:57:29.105Z,0.50
2022-09-28T13:00:09.927Z,0.90
2022-09-28T13:03:23.303Z,0.70
2022-09-28T13:06:24.078Z,0.50
2022-09-28T13:09:15.870Z,1.00
2022-09-28T13:12:13.508Z,0.90
2022-09-28T13:14:55.916Z,0.90
2022-09-28T13:17:38.274Z,1.00
2022-09-28T13:20:20.506Z,1.00
2022-09-28T13:23:13.602Z,1.00
2022-09-28T13:25:55.060Z,0.90
2022-09-28T13:28:27.237Z,1.00
2022-09-28T13:33:36.390Z,1.00
2022-09-28T13:36:26.894Z,1.30
2022-09-28T13:38:56.809Z,1.30
2022-09-28T13:41:31.498Z,1.20
2022-09-28T13:44:23.876Z,1.00
2022-09-28T13:47:21.822Z,0.80
2022-09-28T13:50:26.847Z,1.00
2022-09-28T13:53:25.447Z,0.90
2022-09-28T13:56:25.777Z,0.80
2022-09-28T13:59:11.458Z,1.20
2022-09-28T14:01:55.267Z,0.90
2022-09-28T14:04:46.523Z,0.90
2022-09-28T14:07:25.490Z,1.00
2022-09-28T14:10:37.457Z,1.00
2022-09-28T14:13:06.649Z,1.30
2022-09-28T14:15:44.381Z,1.30
2022-09-28T14:18:25.145Z,1.10
2022-09-28T14:21:44.769Z,1.00
2022-09-28T14:24:54.852Z,1.30
2022-09-28T14:28:00.915Z,1.10
2022-09-28T14:30:47.906Z,0.90
2022-09-28T14:33:28.842Z,0.80
2022-09-28T14:36:07.510Z,0.70
2022-09-28T14:39:11.051Z,0.80
2022-09-28T14:41:44.354Z,0.80
2022-09-28T14:44:20.727Z,0.90
2022-09-28T14:46:48.313Z,0.90
2022-09-28T14:49:18.945Z,0.60
2022-09-28T14:51:57.307Z,0.70
2022-09-28T14:54:43.979Z,0.80
2022-09-28T14:57:25.779Z,0.70
2022-09-28T14:59:55.415Z,0.70
2022-09-28T15:02:31.679Z,1.00
2022-09-28T15:05:19.184Z,1.00
2022-09-28T15:07:55.182Z,1.20
2022-09-28T15:10:30.948Z,1.10
2022-09-28T15:13:04.850Z,0.70
2022-09-28T15:15:38.047Z,0.70
2022-09-28T15:18:27.080Z,0.90
2022-09-28T15:20:55.607Z,0.90
2022-09-28T15:23:29.600Z,1.00
2022-09-28T15:25:56.146Z,1.00
2022-09-28T15:28:23.884Z,1.10
2022-09-28T15:30:59.309Z,1.00
2022-09-28T15:33:53.315Z,1.20
2022-09-28T15:36:29.073Z,1.60
2022-09-28T15:39:01.197Z,1.40
2022-09-28T15:41:28.624Z,1.50
2022-09-28T15:44:14.593Z,1.10
2022-09-28T15:46:51.449Z,1.20
2022-09-28T15:49:38.727Z,1.60
2022-09-28T15:52:07.780Z,1.20
2022-09-28T15:54:44.464Z,1.60
2022-09-28T15:57:38.157Z,1.40
2022-09-28T16:00:29.712Z,1.50
2022-09-28T16:03:08.228Z,1.20
2022-09-28T16:06:08.988Z,1.30
2022-09-28T16:08:35.643Z,1.50
2022-09-28T16:11:17.639Z,1.40
2022-09-28T16:14:15.399Z,1.60
2022-09-28T16:16:49.010Z,2.10
2022-09-28T16:19:31.560Z,1.40
2022-09-28T16:22:03.464Z,1.40
2022-09-28T16:24:35.748Z,1.70
2022-09-28T16:27:41.600Z,2.00
2022-09-28T16:30:30.869Z,2.00
2022-09-28T16:33:01.623Z,1.90
2022-09-28T16:35:40.266Z,1.60
2022-09-28T16:38:16.093Z,1.80
2022-09-28T16:40:54.726Z,2.20
2022-09-28T16:43:28.926Z,2.20
2022-09-28T16:45:59.374Z,2.10
2022-09-28T16:48:32.206Z,1.80
2022-09-28T16:50:59.262Z,1.90
2022-09-28T16:53:45.633Z,1.90
2022-09-28T16:56:13.359Z,2.30
2022-09-28T16:58:42.600Z,2.60
2022-09-28T17:01:11.914Z,2.00
2022-09-28T17:03:41.887Z,2.20
2022-09-28T17:06:11.987Z,3.40
2022-09-28T17:08:38.436Z,2.20
2022-09-28T17:11:23.991Z,2.50
2022-09-28T17:13:53.101Z,2.60
2022-09-28T17:19:26.937Z,2.50
2022-09-28T17:21:53.445Z,2.40
2022-09-28T17:24:20.429Z,2.70
2022-09-28T17:26:51.222Z,4.20
2022-09-28T17:29:19.141Z,4.50
2022-09-28T17:31:46.875Z,5.30
2022-09-28T17:34:19.335Z,6.50
2022-09-28T17:36:46.590Z,7.20
2022-09-28T17:39:16.320Z,6.90
2022-09-28T17:41:42.951Z,7.20
2022-09-28T17:44:09.996Z,7.50
2022-09-28T17:46:40.112Z,7.80
2022-09-28T17:49:11.455Z,7.30
2022-09-28T17:51:38.068Z,7.90
2022-09-28T17:54:07.414Z,7.60
2022-09-28T17:56:35.572Z,7.00
2022-09-28T17:59:12.046Z,7.20
2022-09-28T18:01:40.130Z,7.30
2022-09-28T18:04:19.179Z,7.80
2022-09-28T18:06:59.998Z,7.40
2022-09-28T18:09:26.606Z,6.30
2022-09-28T18:12:00.420Z,6.20
2022-09-28T18:14:28.105Z,6.40
2022-09-28T18:16:54.884Z,6.50
2022-09-28T18:19:21.646Z,6.60
2022-09-28T18:21:48.425Z,6.30
2022-09-28T18:24:15.022Z,6.00
2022-09-28T18:26:41.833Z,6.30
2022-09-28T18:29:08.632Z,7.00
2022-09-28T18:31:36.844Z,5.40
2022-09-28T18:34:03.329Z,5.40
2022-09-28T18:36:35.159Z,5.80
2022-09-28T18:39:03.113Z,6.00
2022-09-28T18:41:29.994Z,7.00
2022-09-28T18:44:00.621Z,5.90
2022-09-28T18:46:29.682Z,6.10
2022-09-28T18:48:56.933Z,6.30
2022-09-28T18:51:24.183Z,6.10
2022-09-28T18:53:53.485Z,6.10
2022-09-28T18:56:21.333Z,5.80
2022-09-28T18:58:52.278Z,6.50
2022-09-28T19:01:30.551Z,5.50
2022-09-28T19:04:01.408Z,6.70
2022-09-28T19:06:33.362Z,6.10
2022-09-28T19:09:01.144Z,6.30
2022-09-28T19:11:28.397Z,5.80
2022-09-28T19:13:56.785Z,5.90
2022-09-28T19:16:28.226Z,5.80
2022-09-28T19:18:58.254Z,6.10
2022-09-28T19:21:29.033Z,6.40
2022-09-28T19:24:03.532Z,6.30
2022-09-28T19:26:32.330Z,6.50
2022-09-28T19:28:59.855Z,6.80
2022-09-28T19:31:27.926Z,7.10
2022-09-28T19:33:54.392Z,7.40
2022-09-28T19:36:23.760Z,7.00
2022-09-28T19:38:52.848Z,7.60
2022-09-28T19:41:50.501Z,7.20
2022-09-28T19:44:27.498Z,7.50
2022-09-28T19:47:07.534Z,7.80
2022-09-28T19:49:40.638Z,7.00
2022-09-28T19:52:16.808Z,7.10
2022-09-28T19:55:00.908Z,7.30
2022-09-28T19:57:31.954Z,6.90
2022-09-28T20:00:02.854Z,7.20
2022-09-28T20:02:30.805Z,7.20
2022-09-28T20:04:57.506Z,7.40
2022-09-28T20:07:24.332Z,6.90
2022-09-28T20:09:51.170Z,6.30
2022-09-28T20:12:17.501Z,6.80
2022-09-28T20:14:43.883Z,6.80
2022-09-28T20:17:10.191Z,7.20
2022-09-28T20:19:36.581Z,6.60
2022-09-28T20:22:03.414Z,6.10
2022-09-28T20:24:31.132Z,7.50
2022-09-28T20:26:58.365Z,6.50
2022-09-28T20:29:24.818Z,7.40
2022-09-28T20:31:51.581Z,6.30
2022-09-28T20:34:18.294Z,6.20
2022-09-28T20:36:44.721Z,5.70
2022-09-28T20:39:11.829Z,5.60
2022-09-28T20:41:38.266Z,5.70
2022-09-28T20:44:06.475Z,5.30
2022-09-28T20:46:35.862Z,5.40
2022-09-28T20:49:06.605Z,5.70
2022-09-28T20:51:32.940Z,6.00
2022-09-28T20:53:59.439Z,6.00
2022-09-28T20:56:30.795Z,5.50
2022-09-28T20:58:57.226Z,5.80
2022-09-28T21:01:28.129Z,5.80
2022-09-28T21:04:01.230Z,5.90
2022-09-28T21:06:32.003Z,5.40
2022-09-28T21:08:58.622Z,5.40
2022-09-28T21:11:27.519Z,6.10
2022-09-28T21:14:00.545Z,5.00
2022-09-28T21:16:31.533Z,5.40
2022-09-28T21:18:58.687Z,5.20
2022-09-28T21:21:26.177Z,6.50
2022-09-28T21:23:56.311Z,7.10
2022-09-28T21:26:26.684Z,7.00
2022-09-28T21:28:53.875Z,7.10
2022-09-28T21:31:28.261Z,7.00
2022-09-28T21:33:56.808Z,6.90
2022-09-28T21:36:24.801Z,6.70
2022-09-28T21:38:51.389Z,6.90
2022-09-28T21:41:17.667Z,7.40
2022-09-28T21:43:45.300Z,7.10
2022-09-28T21:46:11.873Z,7.50
2022-09-28T21:48:38.439Z,6.30
2022-09-28T21:51:08.667Z,6.80
2022-09-28T21:53:37.130Z,6.60
2022-09-28T21:56:09.069Z,6.40
2022-09-28T21:58:36.471Z,6.30
2022-09-28T22:01:17.552Z,6.80
2022-09-28T22:03:49.966Z,6.90
2022-09-28T22:06:20.004Z,6.30
2022-09-28T22:08:48.575Z,5.80
2022-09-28T22:11:20.462Z,6.70
2022-09-28T22:13:50.759Z,6.00
2022-09-28T22:16:19.784Z,5.80
2022-09-28T22:18:46.770Z,6.80
2022-09-28T22:21:21.954Z,6.10
2022-09-28T22:23:48.616Z,7.90
2022-09-28T22:26:24.620Z,7.40
2022-09-28T22:28:55.900Z,7.60
2022-09-28T22:31:26.831Z,8.10
2022-09-28T22:33:53.547Z,8.10
2022-09-28T22:36:20.405Z,8.30
2022-09-28T22:38:48.297Z,7.20
2022-09-28T22:41:20.271Z,6.80
2022-09-28T22:43:49.275Z,7.40
2022-09-28T22:46:20.060Z,7.90
2022-09-28T22:48:50.171Z,7.70
2022-09-28T22:51:16.604Z,7.40
2022-09-28T22:53:43.756Z,8.30
2022-09-28T22:56:14.651Z,8.20
2022-09-28T22:58:44.332Z,6.90
2022-09-28T23:01:16.570Z,7.80
2022-09-28T23:03:44.215Z,6.90
2022-09-28T23:06:15.421Z,7.40
2022-09-28T23:08:43.844Z,8.20
2022-09-28T23:11:11.187Z,8.10
2022-09-28T23:13:37.904Z,8.10
2022-09-28T23:16:07.719Z,8.10
2022-09-28T23:18:36.891Z,8.50
2022-09-28T23:21:11.682Z,8.30
2022-09-28T23:23:38.599Z,7.60
2022-09-28T23:26:17.343Z,7.70
2022-09-28T23:28:44.931Z,7.70
2022-09-28T23:31:22.542Z,7.60
2022-09-28T23:33:50.737Z,7.00
2022-09-28T23:36:17.764Z,7.00
2022-09-28T23:38:44.549Z,6.70
2022-09-28T23:41:11.033Z,7.10
2022-09-28T23:43:37.491Z,7.10
2022-09-28T23:46:04.853Z,7.30
2022-09-28T23:48:32.629Z,6.50
2022-09-28T23:51:00.044Z,6.30
2022-09-28T23:53:27.052Z,5.30
2022-09-28T23:55:53.851Z,5.00
2022-09-28T23:58:20.696Z,5.40
